Terminal Aerodrome Forecast
Issued by NWS

Home | Current Version | Previous Version | Text Only | Print | Product List | Glossary On
Versions: 1 2 3 4 5 6 7 8 9 10 11 12 13 14
000
FTAK31 PANC 061137
TAFAGK
TAF
PAGK 061137Z 0612/0712 15004KT P6SM SCT080
     FM070000 15011G17KT P6SM SCT080
     FM070900 16010KT P6SM FEW070=

USA.gov is the U.S. government's official web portal to all federal, state and local government web resources and services.